MET'MAP v2.0
soon released !

Expected late october,
this new version will be
more efficient, smarter,
and hosted on a brand new
server x3 powerfull...
...and still free !


Not compatible ?
Try the mobile version !

LOG IN : | Subscribe | Disclaimer | Who is Orbifly ? |
ICAO code :

TAF - LHUD Szeged Glider Airport - 27 May 2020 19:06 UTC - Data Source NOAA   


- Airport Elevation : 249 ft
- IATA code : QZD
- No reported NOTAMs.


LHUD - Szeged Glider Airport

Latest METAR recorded : 2015/08/11 07:45 LHUD 110745Z 00000KT CAVOK 28/13 Q1014
NO TAF


MET'MAP, your aeronautical weather chart ! - Copyright ORBIFLY December 2007

Programming & Development : Alexandra Zaïnal
Co-Developer : Marc-Olivier Méhu
Technical & hardware support : Manuel Goepfert
Concept & Financing : Baudouin d'Aumeries